Date,TemperatureHighF,TemperatureAvgF,TemperatureLowF,DewpointHighF,DewpointAvgF,DewpointLowF,HumidityHigh,HumidityAvg,HumidityLow,PressureMaxIn,PressureMinIn,WindSpeedMaxMPH,WindSpeedAvgMPH,GustSpeedMaxMPH,PrecipitationSumIn
2013-4-1,77.7,66.1,55.6,63.3,59.2,54.2,95,80,54,30.14,29.91,11,1,12,0.00
2013-4-2,74.2,65.6,57.7,63.5,59.7,56.0,95,82,61,30.08,29.83,19,3,22,0.01
2013-4-3,68.7,55.4,48.7,62.2,52.6,45.8,94,90,75,29.99,29.74,30,6,34,1.36
2013-4-4,51.8,48.9,46.8,47.6,45.6,44.0,94,88,80,30.06,29.92,18,4,18,0.01
2013-4-5,72.5,57.4,45.0,54.6,47.7,42.8,92,73,45,30.22,30.05,15,2,15,0.00
2013-4-6,69.4,60.6,50.3,59.5,55.0,48.5,95,83,64,30.14,29.97,23,5,23,0.01
2013-4-7,74.2,67.4,60.1,64.9,61.5,57.7,93,82,65,30.07,29.90,21,7,21,0.00
2013-4-8,75.5,70.9,66.7,67.1,65.6,64.0,93,84,69,29.97,29.86,26,10,28,0.00
2013-4-9,77.5,73.1,68.2,72.3,69.4,65.5,93,88,83,29.93,29.80,33,13,33,0.00
2013-4-10,78.0,73.8,57.2,72.7,70.3,54.3,93,89,82,29.88,29.74,36,13,36,0.06
2013-4-11,65.1,54.0,47.1,55.2,49.8,45.4,95,87,56,29.81,29.62,22,5,24,1.35
2013-4-12,75.9,60.0,46.9,56.2,49.4,44.9,95,73,34,30.06,29.80,9,1,10,0.00
2013-4-13,76.8,67.6,50.8,61.8,54.7,48.8,95,66,42,30.04,29.78,17,4,17,0.01
2013-4-14,76.5,67.6,61.0,66.1,61.8,55.7,94,82,64,29.86,29.69,14,3,15,0.05
2013-4-15,81.0,72.6,65.2,72.7,68.7,63.4,94,88,68,29.94,29.74,19,4,19,0.01
2013-4-16,80.1,75.7,73.1,74.7,72.6,71.2,94,90,83,30.04,29.87,23,9,24,0.00
2013-4-17,80.8,76.5,73.3,73.8,72.3,70.8,93,87,77,30.03,29.86,28,12,28,0.00
2013-4-18,79.3,70.1,52.4,73.6,66.5,47.1,93,88,82,29.95,29.72,33,13,33,0.12
2013-4-19,63.5,53.1,46.4,47.4,39.7,31.6,91,62,36,30.18,29.94,25,7,26,0.01
2013-4-20,68.1,53.3,41.2,49.7,42.9,35.0,92,72,33,30.27,30.10,17,2,17,0.00
2013-4-21,72.1,60.3,47.1,54.2,49.6,45.2,95,71,45,30.21,30.02,14,2,14,0.01
2013-4-22,76.1,63.7,50.3,61.7,54.7,47.2,92,75,47,30.17,29.95,13,2,14,0.00
2013-4-23,78.3,71.5,59.0,70.7,67.0,56.5,94,86,71,30.05,29.92,21,5,23,0.00
2013-4-24,73.2,61.9,51.5,70.7,56.3,49.4,94,82,65,30.17,29.92,27,6,27,0.42
2013-4-25,72.1,62.0,51.9,53.4,47.5,40.7,83,62,33,30.33,30.14,19,6,19,0.00
2013-4-26,75.2,69.2,61.5,68.3,61.6,50.4,92,77,55,30.26,30.11,17,5,18,0.00
2013-4-27,77.9,72.5,68.4,70.3,68.7,66.4,94,88,74,30.19,29.95,24,5,29,0.05
2013-4-28,76.6,70.5,64.1,69.0,65.4,61.6,94,85,66,30.04,29.92,17,2,18,0.10
2013-4-29,79.9,70.4,60.4,69.7,64.9,58.7,96,84,60,30.02,29.85,19,2,21,0.01
2013-4-30,80.2,71.8,66.9,70.0,67.3,63.8,95,86,65,29.89,29.80,19,3,20,0.06